sensor_id;sensor_type;location;lat;lon;timestamp;P1;durP1;ratioP1;P2;durP2;ratioP2
944;SDS011;459;48.676;9.034;2023-06-19T00:02:16;7.83;;;7.10;;
944;SDS011;459;48.676;9.034;2023-06-19T00:04:41;7.33;;;6.80;;
944;SDS011;459;48.676;9.034;2023-06-19T00:07:07;7.90;;;7.30;;
944;SDS011;459;48.676;9.034;2023-06-19T00:09:32;7.80;;;7.00;;
944;SDS011;459;48.676;9.034;2023-06-19T00:11:57;8.50;;;6.97;;
944;SDS011;459;48.676;9.034;2023-06-19T00:14:24;8.50;;;7.63;;
944;SDS011;459;48.676;9.034;2023-06-19T00:16:49;8.33;;;7.43;;
944;SDS011;459;48.676;9.034;2023-06-19T00:19:16;8.57;;;7.77;;
944;SDS011;459;48.676;9.034;2023-06-19T00:21:42;8.07;;;7.37;;
944;SDS011;459;48.676;9.034;2023-06-19T00:24:07;8.23;;;7.43;;
944;SDS011;459;48.676;9.034;2023-06-19T00:26:33;8.90;;;7.90;;
944;SDS011;459;48.676;9.034;2023-06-19T00:28:58;7.03;;;6.50;;
944;SDS011;459;48.676;9.034;2023-06-19T00:31:23;7.53;;;6.87;;
944;SDS011;459;48.676;9.034;2023-06-19T00:33:48;8.60;;;7.80;;
944;SDS011;459;48.676;9.034;2023-06-19T00:36:15;7.50;;;6.90;;
944;SDS011;459;48.676;9.034;2023-06-19T00:38:40;7.90;;;7.20;;
944;SDS011;459;48.676;9.034;2023-06-19T00:41:05;8.10;;;7.07;;
944;SDS011;459;48.676;9.034;2023-06-19T00:43:31;7.03;;;6.43;;
944;SDS011;459;48.676;9.034;2023-06-19T00:45:57;7.33;;;6.63;;
944;SDS011;459;48.676;9.034;2023-06-19T00:48:22;6.93;;;6.33;;
944;SDS011;459;48.676;9.034;2023-06-19T00:50:48;6.17;;;5.67;;
944;SDS011;459;48.676;9.034;2023-06-19T00:53:14;7.47;;;6.77;;
944;SDS011;459;48.676;9.034;2023-06-19T00:55:39;7.40;;;6.80;;
944;SDS011;459;48.676;9.034;2023-06-19T00:58:04;6.97;;;6.37;;
944;SDS011;459;48.676;9.034;2023-06-19T01:00:29;7.83;;;7.17;;
944;SDS011;459;48.676;9.034;2023-06-19T01:02:55;6.70;;;6.10;;
944;SDS011;459;48.676;9.034;2023-06-19T01:05:20;7.30;;;6.70;;
944;SDS011;459;48.676;9.034;2023-06-19T01:07:46;7.70;;;7.10;;
944;SDS011;459;48.676;9.034;2023-06-19T01:10:14;8.30;;;7.50;;
944;SDS011;459;48.676;9.034;2023-06-19T01:12:42;8.00;;;7.30;;
944;SDS011;459;48.676;9.034;2023-06-19T01:15:13;8.60;;;6.87;;
944;SDS011;459;48.676;9.034;2023-06-19T01:17:39;7.13;;;6.40;;
944;SDS011;459;48.676;9.034;2023-06-19T01:20:04;7.37;;;6.80;;
944;SDS011;459;48.676;9.034;2023-06-19T01:22:35;7.93;;;7.20;;
944;SDS011;459;48.676;9.034;2023-06-19T01:25:00;7.70;;;7.00;;
944;SDS011;459;48.676;9.034;2023-06-19T01:27:26;6.90;;;6.40;;
944;SDS011;459;48.676;9.034;2023-06-19T01:29:54;6.87;;;6.27;;
944;SDS011;459;48.676;9.034;2023-06-19T01:32:22;6.80;;;6.20;;
944;SDS011;459;48.676;9.034;2023-06-19T01:34:49;6.50;;;5.97;;
944;SDS011;459;48.676;9.034;2023-06-19T01:37:15;6.30;;;5.80;;
944;SDS011;459;48.676;9.034;2023-06-19T01:39:42;8.10;;;5.80;;
944;SDS011;459;48.676;9.034;2023-06-19T01:42:08;8.07;;;7.33;;
944;SDS011;459;48.676;9.034;2023-06-19T01:44:36;6.53;;;5.93;;
944;SDS011;459;48.676;9.034;2023-06-19T01:47:07;7.43;;;6.60;;
944;SDS011;459;48.676;9.034;2023-06-19T01:49:32;6.63;;;6.03;;
944;SDS011;459;48.676;9.034;2023-06-19T01:51:57;6.63;;;6.03;;
944;SDS011;459;48.676;9.034;2023-06-19T01:54:25;6.80;;;6.30;;
944;SDS011;459;48.676;9.034;2023-06-19T01:56:50;6.33;;;5.80;;
944;SDS011;459;48.676;9.034;2023-06-19T01:59:16;5.80;;;5.30;;
944;SDS011;459;48.676;9.034;2023-06-19T02:01:41;5.77;;;5.37;;
944;SDS011;459;48.676;9.034;2023-06-19T02:04:06;5.87;;;5.37;;
944;SDS011;459;48.676;9.034;2023-06-19T02:06:31;6.00;;;5.50;;
944;SDS011;459;48.676;9.034;2023-06-19T02:08:56;6.00;;;5.40;;
944;SDS011;459;48.676;9.034;2023-06-19T02:11:21;5.80;;;5.20;;
944;SDS011;459;48.676;9.034;2023-06-19T02:13:47;5.67;;;5.23;;
944;SDS011;459;48.676;9.034;2023-06-19T02:16:12;6.07;;;5.47;;
944;SDS011;459;48.676;9.034;2023-06-19T02:18:37;5.20;;;4.70;;
944;SDS011;459;48.676;9.034;2023-06-19T02:21:02;5.77;;;4.60;;
944;SDS011;459;48.676;9.034;2023-06-19T02:23:28;4.83;;;4.43;;
944;SDS011;459;48.676;9.034;2023-06-19T02:25:53;5.43;;;4.97;;
944;SDS011;459;48.676;9.034;2023-06-19T02:28:18;5.40;;;4.90;;
944;SDS011;459;48.676;9.034;2023-06-19T02:33:46;5.23;;;4.73;;
944;SDS011;459;48.676;9.034;2023-06-19T02:36:11;5.03;;;4.53;;
944;SDS011;459;48.676;9.034;2023-06-19T02:38:37;5.30;;;4.90;;
944;SDS011;459;48.676;9.034;2023-06-19T02:41:02;6.50;;;5.90;;
944;SDS011;459;48.676;9.034;2023-06-19T02:43:28;4.47;;;4.17;;
944;SDS011;459;48.676;9.034;2023-06-19T02:45:53;5.07;;;4.57;;
944;SDS011;459;48.676;9.034;2023-06-19T02:48:19;4.67;;;4.27;;
944;SDS011;459;48.676;9.034;2023-06-19T02:50:44;5.30;;;4.80;;
944;SDS011;459;48.676;9.034;2023-06-19T02:53:09;4.50;;;4.10;;
944;SDS011;459;48.676;9.034;2023-06-19T02:55:36;5.07;;;4.67;;
944;SDS011;459;48.676;9.034;2023-06-19T02:58:01;4.10;;;3.70;;
944;SDS011;459;48.676;9.034;2023-06-19T03:00:26;4.47;;;4.07;;
944;SDS011;459;48.676;9.034;2023-06-19T03:02:53;4.40;;;4.00;;
944;SDS011;459;48.676;9.034;2023-06-19T03:05:18;3.40;;;3.10;;
944;SDS011;459;48.676;9.034;2023-06-19T03:07:43;4.73;;;4.33;;
944;SDS011;459;48.676;9.034;2023-06-19T03:10:09;4.30;;;3.80;;
944;SDS011;459;48.676;9.034;2023-06-19T03:12:34;4.30;;;3.90;;
944;SDS011;459;48.676;9.034;2023-06-19T03:14:59;5.17;;;4.47;;
944;SDS011;459;48.676;9.034;2023-06-19T03:17:24;4.50;;;3.97;;
944;SDS011;459;48.676;9.034;2023-06-19T03:19:49;4.30;;;3.87;;
944;SDS011;459;48.676;9.034;2023-06-19T03:22:15;4.10;;;3.70;;
944;SDS011;459;48.676;9.034;2023-06-19T03:24:40;4.10;;;3.70;;
944;SDS011;459;48.676;9.034;2023-06-19T03:27:05;4.23;;;3.93;;
944;SDS011;459;48.676;9.034;2023-06-19T03:29:30;4.43;;;3.37;;
944;SDS011;459;48.676;9.034;2023-06-19T03:31:55;4.50;;;3.50;;
944;SDS011;459;48.676;9.034;2023-06-19T03:34:21;4.00;;;3.70;;
944;SDS011;459;48.676;9.034;2023-06-19T03:36:46;4.70;;;3.80;;
944;SDS011;459;48.676;9.034;2023-06-19T03:39:11;3.90;;;3.50;;
944;SDS011;459;48.676;9.034;2023-06-19T03:41:36;3.37;;;3.07;;
944;SDS011;459;48.676;9.034;2023-06-19T03:44:01;3.30;;;2.90;;
944;SDS011;459;48.676;9.034;2023-06-19T03:46:26;3.90;;;3.40;;
944;SDS011;459;48.676;9.034;2023-06-19T03:48:52;3.10;;;2.83;;
944;SDS011;459;48.676;9.034;2023-06-19T03:51:17;5.60;;;3.40;;
944;SDS011;459;48.676;9.034;2023-06-19T03:53:42;3.90;;;3.50;;
944;SDS011;459;48.676;9.034;2023-06-19T03:56:07;4.20;;;3.33;;
944;SDS011;459;48.676;9.034;2023-06-19T03:58:32;4.00;;;3.30;;
944;SDS011;459;48.676;9.034;2023-06-19T04:00:58;4.67;;;4.27;;
944;SDS011;459;48.676;9.034;2023-06-19T04:03:23;3.40;;;3.10;;
944;SDS011;459;48.676;9.034;2023-06-19T04:05:48;4.53;;;4.10;;
944;SDS011;459;48.676;9.034;2023-06-19T04:08:13;5.57;;;3.80;;
944;SDS011;459;48.676;9.034;2023-06-19T04:10:38;4.47;;;3.90;;
944;SDS011;459;48.676;9.034;2023-06-19T04:13:04;5.20;;;4.70;;
944;SDS011;459;48.676;9.034;2023-06-19T04:15:29;5.33;;;4.00;;
944;SDS011;459;48.676;9.034;2023-06-19T04:17:57;4.30;;;3.90;;
944;SDS011;459;48.676;9.034;2023-06-19T04:20:22;4.43;;;4.03;;
944;SDS011;459;48.676;9.034;2023-06-19T04:22:47;4.70;;;3.23;;
944;SDS011;459;48.676;9.034;2023-06-19T04:25:12;4.30;;;3.73;;
944;SDS011;459;48.676;9.034;2023-06-19T04:27:37;4.30;;;3.90;;
944;SDS011;459;48.676;9.034;2023-06-19T04:30:03;3.80;;;3.40;;
944;SDS011;459;48.676;9.034;2023-06-19T04:32:29;4.63;;;3.70;;
944;SDS011;459;48.676;9.034;2023-06-19T04:34:54;5.60;;;4.27;;
944;SDS011;459;48.676;9.034;2023-06-19T04:37:19;4.33;;;3.90;;
944;SDS011;459;48.676;9.034;2023-06-19T04:39:45;3.93;;;3.63;;
944;SDS011;459;48.676;9.034;2023-06-19T04:42:10;4.07;;;3.77;;
944;SDS011;459;48.676;9.034;2023-06-19T04:44:35;3.67;;;3.30;;
944;SDS011;459;48.676;9.034;2023-06-19T04:47:01;4.17;;;3.77;;
944;SDS011;459;48.676;9.034;2023-06-19T04:49:29;3.20;;;2.90;;
944;SDS011;459;48.676;9.034;2023-06-19T04:51:57;3.70;;;3.40;;
944;SDS011;459;48.676;9.034;2023-06-19T04:54:23;3.70;;;3.40;;
944;SDS011;459;48.676;9.034;2023-06-19T04:56:49;4.57;;;3.50;;
944;SDS011;459;48.676;9.034;2023-06-19T04:59:14;3.73;;;3.43;;
944;SDS011;459;48.676;9.034;2023-06-19T05:01:43;3.70;;;3.40;;
944;SDS011;459;48.676;9.034;2023-06-19T05:04:08;3.23;;;2.63;;
944;SDS011;459;48.676;9.034;2023-06-19T05:06:33;3.60;;;3.27;;
944;SDS011;459;48.676;9.034;2023-06-19T05:08:58;3.07;;;2.77;;
944;SDS011;459;48.676;9.034;2023-06-19T05:11:23;4.83;;;3.50;;
944;SDS011;459;48.676;9.034;2023-06-19T05:13:48;3.97;;;3.20;;
944;SDS011;459;48.676;9.034;2023-06-19T05:16:14;3.80;;;3.27;;
944;SDS011;459;48.676;9.034;2023-06-19T05:18:41;3.27;;;2.97;;
944;SDS011;459;48.676;9.034;2023-06-19T05:21:06;3.87;;;3.53;;
944;SDS011;459;48.676;9.034;2023-06-19T05:23:31;4.00;;;3.60;;
944;SDS011;459;48.676;9.034;2023-06-19T05:25:56;4.20;;;3.80;;
944;SDS011;459;48.676;9.034;2023-06-19T05:28:22;3.90;;;3.50;;
944;SDS011;459;48.676;9.034;2023-06-19T05:30:47;4.20;;;2.97;;
944;SDS011;459;48.676;9.034;2023-06-19T05:33:12;3.77;;;3.47;;
944;SDS011;459;48.676;9.034;2023-06-19T05:35:40;3.60;;;3.30;;
944;SDS011;459;48.676;9.034;2023-06-19T05:38:05;3.60;;;3.30;;
944;SDS011;459;48.676;9.034;2023-06-19T05:40:31;3.63;;;3.33;;
944;SDS011;459;48.676;9.034;2023-06-19T05:42:56;4.27;;;3.60;;
944;SDS011;459;48.676;9.034;2023-06-19T05:45:21;3.73;;;3.43;;
944;SDS011;459;48.676;9.034;2023-06-19T05:47:46;4.23;;;3.00;;
944;SDS011;459;48.676;9.034;2023-06-19T05:50:11;3.40;;;3.10;;
944;SDS011;459;48.676;9.034;2023-06-19T05:52:37;3.57;;;3.27;;
944;SDS011;459;48.676;9.034;2023-06-19T05:55:06;3.53;;;3.20;;
944;SDS011;459;48.676;9.034;2023-06-19T05:57:31;3.93;;;3.63;;
944;SDS011;459;48.676;9.034;2023-06-19T05:59:57;2.80;;;2.50;;
944;SDS011;459;48.676;9.034;2023-06-19T06:02:22;3.77;;;3.47;;
944;SDS011;459;48.676;9.034;2023-06-19T06:04:47;3.43;;;3.13;;
944;SDS011;459;48.676;9.034;2023-06-19T06:07:12;3.27;;;3.07;;
944;SDS011;459;48.676;9.034;2023-06-19T06:09:38;3.13;;;2.83;;
944;SDS011;459;48.676;9.034;2023-06-19T06:12:04;3.70;;;3.40;;
944;SDS011;459;48.676;9.034;2023-06-19T06:14:29;3.40;;;3.10;;
944;SDS011;459;48.676;9.034;2023-06-19T06:16:54;3.57;;;3.27;;
944;SDS011;459;48.676;9.034;2023-06-19T06:19:20;3.50;;;3.20;;
944;SDS011;459;48.676;9.034;2023-06-19T06:21:45;3.23;;;2.93;;
944;SDS011;459;48.676;9.034;2023-06-19T06:24:10;3.40;;;3.00;;
944;SDS011;459;48.676;9.034;2023-06-19T06:26:36;3.10;;;2.60;;
944;SDS011;459;48.676;9.034;2023-06-19T06:29:02;4.10;;;3.00;;
944;SDS011;459;48.676;9.034;2023-06-19T06:31:27;3.57;;;3.27;;
944;SDS011;459;48.676;9.034;2023-06-19T06:33:52;3.70;;;3.20;;
944;SDS011;459;48.676;9.034;2023-06-19T06:36:17;4.30;;;2.90;;
944;SDS011;459;48.676;9.034;2023-06-19T06:38:43;3.73;;;2.70;;
944;SDS011;459;48.676;9.034;2023-06-19T06:41:08;3.27;;;2.97;;
944;SDS011;459;48.676;9.034;2023-06-19T06:43:33;4.23;;;3.33;;
944;SDS011;459;48.676;9.034;2023-06-19T06:45:59;3.03;;;2.73;;
944;SDS011;459;48.676;9.034;2023-06-19T06:48:24;2.90;;;2.60;;
944;SDS011;459;48.676;9.034;2023-06-19T06:50:49;3.10;;;2.80;;
944;SDS011;459;48.676;9.034;2023-06-19T06:53:14;3.53;;;3.23;;
944;SDS011;459;48.676;9.034;2023-06-19T06:55:39;5.77;;;3.67;;
944;SDS011;459;48.676;9.034;2023-06-19T06:58:05;3.83;;;3.53;;
944;SDS011;459;48.676;9.034;2023-06-19T07:00:30;4.07;;;3.67;;
944;SDS011;459;48.676;9.034;2023-06-19T07:02:55;3.30;;;2.87;;
944;SDS011;459;48.676;9.034;2023-06-19T07:05:20;3.90;;;3.50;;
944;SDS011;459;48.676;9.034;2023-06-19T07:07:45;3.00;;;2.70;;
944;SDS011;459;48.676;9.034;2023-06-19T07:10:11;3.80;;;3.40;;
944;SDS011;459;48.676;9.034;2023-06-19T07:12:43;4.40;;;3.10;;
944;SDS011;459;48.676;9.034;2023-06-19T07:15:09;2.87;;;2.67;;
944;SDS011;459;48.676;9.034;2023-06-19T07:17:34;3.20;;;2.90;;
944;SDS011;459;48.676;9.034;2023-06-19T07:19:59;3.40;;;3.10;;
944;SDS011;459;48.676;9.034;2023-06-19T07:22:24;3.10;;;2.80;;
944;SDS011;459;48.676;9.034;2023-06-19T07:24:49;3.43;;;3.13;;
944;SDS011;459;48.676;9.034;2023-06-19T07:27:14;3.23;;;2.93;;
944;SDS011;459;48.676;9.034;2023-06-19T07:29:40;3.23;;;3.03;;
944;SDS011;459;48.676;9.034;2023-06-19T07:32:05;3.80;;;3.07;;
944;SDS011;459;48.676;9.034;2023-06-19T07:34:30;3.70;;;3.13;;
944;SDS011;459;48.676;9.034;2023-06-19T07:36:55;4.10;;;3.40;;
944;SDS011;459;48.676;9.034;2023-06-19T07:39:21;4.77;;;3.43;;
944;SDS011;459;48.676;9.034;2023-06-19T07:41:46;3.37;;;3.07;;
944;SDS011;459;48.676;9.034;2023-06-19T07:44:11;4.70;;;3.70;;
944;SDS011;459;48.676;9.034;2023-06-19T07:46:36;4.03;;;3.73;;
944;SDS011;459;48.676;9.034;2023-06-19T07:49:02;4.87;;;3.33;;
944;SDS011;459;48.676;9.034;2023-06-19T07:51:27;4.80;;;4.23;;
944;SDS011;459;48.676;9.034;2023-06-19T07:53:52;4.77;;;4.27;;
944;SDS011;459;48.676;9.034;2023-06-19T07:56:17;3.93;;;3.63;;
944;SDS011;459;48.676;9.034;2023-06-19T07:58:42;4.65;;;3.83;;
944;SDS011;459;48.676;9.034;2023-06-19T08:01:07;4.07;;;3.67;;
944;SDS011;459;48.676;9.034;2023-06-19T08:03:33;4.70;;;4.20;;
944;SDS011;459;48.676;9.034;2023-06-19T08:05:58;4.30;;;3.90;;
944;SDS011;459;48.676;9.034;2023-06-19T08:08:23;4.30;;;3.90;;
944;SDS011;459;48.676;9.034;2023-06-19T08:10:48;4.57;;;4.17;;
944;SDS011;459;48.676;9.034;2023-06-19T08:13:13;3.83;;;3.53;;
944;SDS011;459;48.676;9.034;2023-06-19T08:15:38;4.37;;;3.97;;
944;SDS011;459;48.676;9.034;2023-06-19T08:18:04;4.40;;;3.77;;
944;SDS011;459;48.676;9.034;2023-06-19T08:20:29;3.40;;;3.10;;
944;SDS011;459;48.676;9.034;2023-06-19T08:22:54;3.77;;;3.37;;
944;SDS011;459;48.676;9.034;2023-06-19T08:25:21;3.70;;;3.40;;
944;SDS011;459;48.676;9.034;2023-06-19T08:27:46;4.13;;;3.83;;
944;SDS011;459;48.676;9.034;2023-06-19T08:30:11;4.13;;;3.83;;
944;SDS011;459;48.676;9.034;2023-06-19T08:32:36;4.43;;;4.03;;
944;SDS011;459;48.676;9.034;2023-06-19T08:35:02;4.50;;;3.80;;
944;SDS011;459;48.676;9.034;2023-06-19T08:37:27;3.43;;;3.13;;
944;SDS011;459;48.676;9.034;2023-06-19T08:39:53;3.83;;;3.43;;
944;SDS011;459;48.676;9.034;2023-06-19T08:42:18;3.57;;;3.27;;
944;SDS011;459;48.676;9.034;2023-06-19T08:44:43;3.40;;;3.10;;
944;SDS011;459;48.676;9.034;2023-06-19T08:47:08;4.80;;;3.37;;
944;SDS011;459;48.676;9.034;2023-06-19T08:49:35;4.23;;;3.07;;
944;SDS011;459;48.676;9.034;2023-06-19T08:52:01;3.73;;;3.40;;
944;SDS011;459;48.676;9.034;2023-06-19T08:54:26;3.80;;;3.50;;
944;SDS011;459;48.676;9.034;2023-06-19T08:56:51;5.23;;;3.50;;
944;SDS011;459;48.676;9.034;2023-06-19T08:59:19;3.10;;;2.80;;
944;SDS011;459;48.676;9.034;2023-06-19T09:01:47;3.37;;;3.07;;
944;SDS011;459;48.676;9.034;2023-06-19T09:04:23;3.60;;;3.23;;
944;SDS011;459;48.676;9.034;2023-06-19T09:06:52;3.43;;;3.07;;
944;SDS011;459;48.676;9.034;2023-06-19T09:09:21;3.57;;;3.17;;
944;SDS011;459;48.676;9.034;2023-06-19T09:12:02;3.07;;;2.80;;
944;SDS011;459;48.676;9.034;2023-06-19T09:14:32;3.10;;;2.80;;
944;SDS011;459;48.676;9.034;2023-06-19T09:16:58;3.07;;;2.77;;
944;SDS011;459;48.676;9.034;2023-06-19T09:19:23;3.07;;;2.87;;
944;SDS011;459;48.676;9.034;2023-06-19T09:21:48;2.90;;;2.60;;
944;SDS011;459;48.676;9.034;2023-06-19T09:24:13;3.40;;;3.10;;
944;SDS011;459;48.676;9.034;2023-06-19T09:26:38;3.43;;;3.13;;
944;SDS011;459;48.676;9.034;2023-06-19T09:29:10;3.67;;;3.37;;
944;SDS011;459;48.676;9.034;2023-06-19T09:31:35;4.03;;;3.63;;
944;SDS011;459;48.676;9.034;2023-06-19T09:34:02;3.73;;;3.43;;
944;SDS011;459;48.676;9.034;2023-06-19T09:36:27;2.90;;;2.70;;
944;SDS011;459;48.676;9.034;2023-06-19T09:38:53;4.13;;;3.43;;
944;SDS011;459;48.676;9.034;2023-06-19T09:41:20;3.17;;;2.97;;
944;SDS011;459;48.676;9.034;2023-06-19T09:43:46;3.27;;;3.00;;
944;SDS011;459;48.676;9.034;2023-06-19T09:46:12;2.70;;;2.50;;
944;SDS011;459;48.676;9.034;2023-06-19T09:48:42;3.03;;;2.80;;
944;SDS011;459;48.676;9.034;2023-06-19T09:53:43;2.83;;;2.63;;
944;SDS011;459;48.676;9.034;2023-06-19T09:56:09;2.63;;;2.43;;
944;SDS011;459;48.676;9.034;2023-06-19T09:58:34;4.20;;;3.00;;
944;SDS011;459;48.676;9.034;2023-06-19T10:01:00;2.87;;;2.67;;
944;SDS011;459;48.676;9.034;2023-06-19T10:03:32;3.17;;;2.87;;
944;SDS011;459;48.676;9.034;2023-06-19T10:06:02;3.13;;;2.83;;
944;SDS011;459;48.676;9.034;2023-06-19T10:08:28;2.87;;;2.63;;
944;SDS011;459;48.676;9.034;2023-06-19T10:10:54;2.80;;;2.60;;
944;SDS011;459;48.676;9.034;2023-06-19T10:13:19;3.00;;;2.80;;
944;SDS011;459;48.676;9.034;2023-06-19T10:15:45;4.87;;;2.90;;
944;SDS011;459;48.676;9.034;2023-06-19T10:18:15;2.93;;;2.73;;
944;SDS011;459;48.676;9.034;2023-06-19T10:20:41;3.17;;;2.87;;
944;SDS011;459;48.676;9.034;2023-06-19T10:23:11;3.10;;;2.90;;
944;SDS011;459;48.676;9.034;2023-06-19T10:25:38;3.30;;;3.00;;
944;SDS011;459;48.676;9.034;2023-06-19T10:28:04;3.13;;;2.90;;
944;SDS011;459;48.676;9.034;2023-06-19T10:30:33;2.80;;;2.60;;
944;SDS011;459;48.676;9.034;2023-06-19T10:32:59;3.30;;;2.80;;
944;SDS011;459;48.676;9.034;2023-06-19T10:35:25;3.13;;;2.93;;
944;SDS011;459;48.676;9.034;2023-06-19T10:37:50;2.90;;;2.70;;
944;SDS011;459;48.676;9.034;2023-06-19T10:40:16;2.83;;;2.63;;
944;SDS011;459;48.676;9.034;2023-06-19T10:42:41;3.07;;;2.87;;
944;SDS011;459;48.676;9.034;2023-06-19T10:45:07;2.77;;;2.57;;
944;SDS011;459;48.676;9.034;2023-06-19T10:47:42;4.03;;;3.63;;
944;SDS011;459;48.676;9.034;2023-06-19T10:50:11;3.70;;;3.40;;
944;SDS011;459;48.676;9.034;2023-06-19T10:52:39;2.97;;;2.70;;
944;SDS011;459;48.676;9.034;2023-06-19T10:55:04;3.20;;;3.00;;
944;SDS011;459;48.676;9.034;2023-06-19T10:57:30;3.70;;;3.40;;
944;SDS011;459;48.676;9.034;2023-06-19T10:59:55;3.07;;;2.87;;
944;SDS011;459;48.676;9.034;2023-06-19T11:02:21;2.67;;;2.47;;
944;SDS011;459;48.676;9.034;2023-06-19T11:04:46;3.30;;;3.10;;
944;SDS011;459;48.676;9.034;2023-06-19T11:07:12;3.40;;;3.10;;
944;SDS011;459;48.676;9.034;2023-06-19T11:09:37;3.70;;;2.90;;
944;SDS011;459;48.676;9.034;2023-06-19T11:12:02;3.37;;;3.07;;
944;SDS011;459;48.676;9.034;2023-06-19T11:14:29;4.00;;;3.60;;
944;SDS011;459;48.676;9.034;2023-06-19T11:16:54;4.20;;;3.80;;
944;SDS011;459;48.676;9.034;2023-06-19T11:19:20;4.30;;;3.90;;
944;SDS011;459;48.676;9.034;2023-06-19T11:21:47;4.13;;;3.80;;
944;SDS011;459;48.676;9.034;2023-06-19T11:24:13;3.87;;;3.57;;
944;SDS011;459;48.676;9.034;2023-06-19T11:26:38;4.17;;;3.87;;
944;SDS011;459;48.676;9.034;2023-06-19T11:29:14;4.20;;;3.90;;
944;SDS011;459;48.676;9.034;2023-06-19T11:31:40;3.57;;;3.27;;
944;SDS011;459;48.676;9.034;2023-06-19T11:34:05;4.10;;;3.80;;
944;SDS011;459;48.676;9.034;2023-06-19T11:36:31;4.57;;;3.83;;
944;SDS011;459;48.676;9.034;2023-06-19T11:38:56;4.37;;;4.00;;
944;SDS011;459;48.676;9.034;2023-06-19T11:41:25;4.00;;;3.50;;
944;SDS011;459;48.676;9.034;2023-06-19T11:43:51;3.83;;;3.40;;
944;SDS011;459;48.676;9.034;2023-06-19T11:46:27;4.20;;;3.80;;
944;SDS011;459;48.676;9.034;2023-06-19T11:48:52;4.13;;;3.83;;
944;SDS011;459;48.676;9.034;2023-06-19T11:51:18;4.10;;;3.70;;
944;SDS011;459;48.676;9.034;2023-06-19T11:53:43;4.07;;;3.67;;
944;SDS011;459;48.676;9.034;2023-06-19T11:56:08;3.58;;;3.28;;
944;SDS011;459;48.676;9.034;2023-06-19T11:58:34;4.10;;;3.70;;
944;SDS011;459;48.676;9.034;2023-06-19T12:00:59;6.13;;;3.47;;
944;SDS011;459;48.676;9.034;2023-06-19T12:03:24;3.75;;;3.45;;
944;SDS011;459;48.676;9.034;2023-06-19T12:05:49;4.07;;;3.40;;
944;SDS011;459;48.676;9.034;2023-06-19T12:08:14;3.30;;;3.00;;
944;SDS011;459;48.676;9.034;2023-06-19T12:10:41;4.33;;;3.93;;
944;SDS011;459;48.676;9.034;2023-06-19T12:13:06;3.93;;;3.60;;
944;SDS011;459;48.676;9.034;2023-06-19T12:15:31;4.03;;;3.73;;
944;SDS011;459;48.676;9.034;2023-06-19T12:17:56;3.23;;;2.93;;
944;SDS011;459;48.676;9.034;2023-06-19T12:20:23;3.70;;;3.40;;
944;SDS011;459;48.676;9.034;2023-06-19T12:22:49;3.23;;;3.03;;
944;SDS011;459;48.676;9.034;2023-06-19T12:25:14;3.70;;;3.40;;
944;SDS011;459;48.676;9.034;2023-06-19T12:27:39;3.67;;;3.37;;
944;SDS011;459;48.676;9.034;2023-06-19T12:30:05;5.90;;;4.07;;
944;SDS011;459;48.676;9.034;2023-06-19T12:32:31;3.10;;;2.90;;
944;SDS011;459;48.676;9.034;2023-06-19T12:34:56;3.23;;;2.93;;
944;SDS011;459;48.676;9.034;2023-06-19T12:37:21;3.70;;;3.40;;
944;SDS011;459;48.676;9.034;2023-06-19T12:39:47;3.37;;;3.07;;
944;SDS011;459;48.676;9.034;2023-06-19T12:42:12;3.17;;;2.93;;
944;SDS011;459;48.676;9.034;2023-06-19T12:44:40;3.30;;;3.00;;
944;SDS011;459;48.676;9.034;2023-06-19T12:47:06;3.53;;;3.20;;
944;SDS011;459;48.676;9.034;2023-06-19T12:49:31;3.53;;;3.23;;
944;SDS011;459;48.676;9.034;2023-06-19T12:51:57;3.50;;;3.20;;
944;SDS011;459;48.676;9.034;2023-06-19T12:54:22;2.67;;;2.47;;
944;SDS011;459;48.676;9.034;2023-06-19T12:56:48;3.50;;;2.97;;
944;SDS011;459;48.676;9.034;2023-06-19T12:59:13;3.23;;;3.03;;
944;SDS011;459;48.676;9.034;2023-06-19T13:01:38;3.23;;;3.03;;
944;SDS011;459;48.676;9.034;2023-06-19T13:04:04;3.67;;;3.37;;
944;SDS011;459;48.676;9.034;2023-06-19T13:06:29;3.50;;;3.20;;
944;SDS011;459;48.676;9.034;2023-06-19T13:08:54;3.57;;;3.27;;
944;SDS011;459;48.676;9.034;2023-06-19T13:11:19;3.13;;;2.93;;
944;SDS011;459;48.676;9.034;2023-06-19T13:13:44;3.20;;;2.90;;
944;SDS011;459;48.676;9.034;2023-06-19T13:16:09;3.13;;;2.87;;
944;SDS011;459;48.676;9.034;2023-06-19T13:18:35;4.40;;;4.00;;
944;SDS011;459;48.676;9.034;2023-06-19T13:21:00;3.77;;;3.47;;
944;SDS011;459;48.676;9.034;2023-06-19T13:23:26;3.27;;;2.97;;
944;SDS011;459;48.676;9.034;2023-06-19T13:25:51;3.20;;;2.90;;
944;SDS011;459;48.676;9.034;2023-06-19T13:28:16;3.67;;;3.37;;
944;SDS011;459;48.676;9.034;2023-06-19T13:30:41;3.90;;;3.60;;
944;SDS011;459;48.676;9.034;2023-06-19T13:33:06;4.57;;;3.80;;
944;SDS011;459;48.676;9.034;2023-06-19T13:35:32;3.40;;;3.03;;
944;SDS011;459;48.676;9.034;2023-06-19T13:37:57;4.67;;;4.27;;
944;SDS011;459;48.676;9.034;2023-06-19T13:40:22;3.97;;;3.00;;
944;SDS011;459;48.676;9.034;2023-06-19T13:42:47;4.13;;;3.73;;
944;SDS011;459;48.676;9.034;2023-06-19T13:45:13;3.93;;;3.63;;
944;SDS011;459;48.676;9.034;2023-06-19T13:47:38;3.73;;;3.43;;
944;SDS011;459;48.676;9.034;2023-06-19T13:50:03;5.43;;;3.93;;
944;SDS011;459;48.676;9.034;2023-06-19T13:52:28;4.13;;;3.73;;
944;SDS011;459;48.676;9.034;2023-06-19T13:54:53;3.57;;;3.27;;
944;SDS011;459;48.676;9.034;2023-06-19T13:57:19;3.20;;;2.80;;
944;SDS011;459;48.676;9.034;2023-06-19T13:59:44;3.70;;;3.40;;
944;SDS011;459;48.676;9.034;2023-06-19T14:02:09;3.37;;;3.07;;
944;SDS011;459;48.676;9.034;2023-06-19T14:04:35;3.67;;;3.37;;
944;SDS011;459;48.676;9.034;2023-06-19T14:07:00;4.00;;;3.70;;
944;SDS011;459;48.676;9.034;2023-06-19T14:09:25;4.10;;;3.80;;
944;SDS011;459;48.676;9.034;2023-06-19T14:11:51;3.70;;;3.40;;
944;SDS011;459;48.676;9.034;2023-06-19T14:14:16;3.83;;;3.53;;
944;SDS011;459;48.676;9.034;2023-06-19T14:16:41;3.80;;;3.50;;
944;SDS011;459;48.676;9.034;2023-06-19T14:19:06;3.80;;;3.50;;
944;SDS011;459;48.676;9.034;2023-06-19T14:21:32;4.17;;;3.87;;
944;SDS011;459;48.676;9.034;2023-06-19T14:23:57;3.90;;;3.60;;
944;SDS011;459;48.676;9.034;2023-06-19T14:26:22;4.10;;;3.47;;
944;SDS011;459;48.676;9.034;2023-06-19T14:28:47;3.63;;;3.33;;
944;SDS011;459;48.676;9.034;2023-06-19T14:31:13;3.40;;;3.20;;
944;SDS011;459;48.676;9.034;2023-06-19T14:33:38;4.90;;;3.80;;
944;SDS011;459;48.676;9.034;2023-06-19T14:36:03;4.27;;;3.87;;
944;SDS011;459;48.676;9.034;2023-06-19T14:38:29;3.53;;;3.23;;
944;SDS011;459;48.676;9.034;2023-06-19T14:40:58;4.10;;;3.80;;
944;SDS011;459;48.676;9.034;2023-06-19T14:43:24;6.10;;;3.70;;
944;SDS011;459;48.676;9.034;2023-06-19T14:45:49;3.80;;;3.50;;
944;SDS011;459;48.676;9.034;2023-06-19T14:48:14;3.63;;;3.33;;
944;SDS011;459;48.676;9.034;2023-06-19T14:50:39;3.90;;;3.60;;
944;SDS011;459;48.676;9.034;2023-06-19T14:53:05;3.50;;;3.20;;
944;SDS011;459;48.676;9.034;2023-06-19T14:55:30;4.07;;;3.67;;
944;SDS011;459;48.676;9.034;2023-06-19T14:57:55;3.60;;;3.37;;
944;SDS011;459;48.676;9.034;2023-06-19T15:00:20;3.50;;;3.20;;
944;SDS011;459;48.676;9.034;2023-06-19T15:02:45;4.20;;;3.40;;
944;SDS011;459;48.676;9.034;2023-06-19T15:05:10;4.47;;;3.50;;
944;SDS011;459;48.676;9.034;2023-06-19T15:07:36;3.83;;;3.53;;
944;SDS011;459;48.676;9.034;2023-06-19T15:10:01;4.07;;;3.77;;
944;SDS011;459;48.676;9.034;2023-06-19T15:12:26;4.17;;;3.87;;
944;SDS011;459;48.676;9.034;2023-06-19T15:14:51;3.80;;;3.50;;
944;SDS011;459;48.676;9.034;2023-06-19T15:17:16;3.53;;;3.23;;
944;SDS011;459;48.676;9.034;2023-06-19T15:19:42;3.77;;;3.47;;
944;SDS011;459;48.676;9.034;2023-06-19T15:22:07;3.83;;;3.50;;
944;SDS011;459;48.676;9.034;2023-06-19T15:24:32;3.97;;;3.67;;
944;SDS011;459;48.676;9.034;2023-06-19T15:26:57;4.30;;;3.90;;
944;SDS011;459;48.676;9.034;2023-06-19T15:29:24;3.67;;;3.37;;
944;SDS011;459;48.676;9.034;2023-06-19T15:31:49;3.87;;;3.57;;
944;SDS011;459;48.676;9.034;2023-06-19T15:34:14;4.00;;;3.70;;
944;SDS011;459;48.676;9.034;2023-06-19T15:36:39;4.10;;;3.70;;
944;SDS011;459;48.676;9.034;2023-06-19T15:39:05;3.93;;;3.63;;
944;SDS011;459;48.676;9.034;2023-06-19T15:41:30;4.00;;;3.70;;